createdAt,value
2023-02-26T00:01:24.240Z,3.50
2023-02-26T00:03:57.056Z,3.50
2023-02-26T00:06:26.205Z,3.50
2023-02-26T00:08:54.210Z,3.50
2023-02-26T00:11:22.446Z,3.50
2023-02-26T00:13:49.729Z,3.50
2023-02-26T00:16:19.710Z,3.50
2023-02-26T00:18:46.866Z,3.50
2023-02-26T00:21:22.513Z,3.50
2023-02-26T00:23:49.749Z,3.50
2023-02-26T00:26:16.650Z,3.50
2023-02-26T00:28:43.970Z,3.50
2023-02-26T00:31:11.829Z,3.50
2023-02-26T00:33:39.153Z,3.50
2023-02-26T00:36:26.749Z,3.50
2023-02-26T00:39:14.048Z,3.50
2023-02-26T00:41:41.471Z,3.50
2023-02-26T00:44:08.754Z,3.50
2023-02-26T00:46:35.732Z,3.50
2023-02-26T00:49:27.966Z,3.50
2023-02-26T00:51:59.360Z,3.50
2023-02-26T00:54:29.294Z,3.50
2023-02-26T00:56:58.288Z,3.50
2023-02-26T00:59:26.340Z,3.50
2023-02-26T01:01:53.822Z,3.50
2023-02-26T01:04:22.790Z,3.50
2023-02-26T01:06:53.969Z,3.40
2023-02-26T01:09:29.919Z,3.50
2023-02-26T01:12:01.742Z,3.50
2023-02-26T01:14:29.862Z,3.50
2023-02-26T01:17:36.024Z,3.50
2023-02-26T01:20:14.797Z,3.50
2023-02-26T01:23:08.984Z,3.40
2023-02-26T01:25:42.065Z,3.50
2023-02-26T01:28:09.446Z,3.50
2023-02-26T01:30:36.966Z,3.40
2023-02-26T01:33:22.259Z,3.40
2023-02-26T01:36:04.229Z,3.40
2023-02-26T01:39:02.610Z,3.50
2023-02-26T01:41:34.965Z,3.60
2023-02-26T01:44:26.687Z,3.50
2023-02-26T01:47:14.283Z,3.50
2023-02-26T01:49:42.146Z,3.60
2023-02-26T01:52:46.842Z,3.60
2023-02-26T01:55:25.065Z,3.70
2023-02-26T01:57:53.832Z,3.50
2023-02-26T02:00:21.102Z,3.50
2023-02-26T02:02:49.556Z,3.50
2023-02-26T02:05:31.887Z,3.40
2023-02-26T02:07:59.817Z,3.40
2023-02-26T02:10:28.032Z,3.50
2023-02-26T02:13:13.875Z,3.50
2023-02-26T02:15:49.115Z,3.40
2023-02-26T02:18:19.200Z,3.40
2023-02-26T02:20:46.049Z,3.40
2023-02-26T02:23:20.209Z,3.40
2023-02-26T02:26:25.143Z,3.40
2023-02-26T02:29:23.031Z,3.50
2023-02-26T02:32:01.291Z,3.50
2023-02-26T02:34:49.598Z,3.50
2023-02-26T02:37:32.767Z,3.50
2023-02-26T02:40:09.334Z,3.50
2023-02-26T02:42:51.586Z,3.50
2023-02-26T02:45:38.623Z,3.60
2023-02-26T02:48:16.522Z,3.50
2023-02-26T02:50:49.728Z,3.50
2023-02-26T02:53:26.104Z,3.60
2023-02-26T02:56:05.810Z,3.60
2023-02-26T02:58:38.614Z,3.50
2023-02-26T03:01:10.084Z,3.50
2023-02-26T03:03:42.764Z,3.50
2023-02-26T03:06:09.729Z,3.60
2023-02-26T03:08:42.346Z,3.60
2023-02-26T03:11:09.889Z,3.70
2023-02-26T03:13:39.639Z,3.60
2023-02-26T03:16:26.129Z,3.60
2023-02-26T03:18:59.384Z,3.50
2023-02-26T03:21:44.911Z,3.50
2023-02-26T03:24:24.759Z,3.50
2023-02-26T03:26:58.490Z,3.50
2023-02-26T03:29:48.358Z,3.50
2023-02-26T03:32:44.345Z,3.50
2023-02-26T03:35:18.395Z,3.50
2023-02-26T03:37:49.039Z,3.60
2023-02-26T03:40:25.549Z,3.60
2023-02-26T03:43:01.461Z,3.60
2023-02-26T03:45:34.807Z,3.60
2023-02-26T03:48:05.700Z,3.60
2023-02-26T03:50:44.206Z,3.60
2023-02-26T03:53:15.169Z,3.60
2023-02-26T03:55:49.245Z,3.60
2023-02-26T03:58:16.782Z,3.60
2023-02-26T04:00:47.393Z,3.60
2023-02-26T04:03:41.881Z,3.60
2023-02-26T04:06:09.096Z,3.60
2023-02-26T04:08:36.456Z,3.60
2023-02-26T04:11:12.142Z,3.60
2023-02-26T04:13:39.269Z,3.60
2023-02-26T04:16:06.522Z,3.70
2023-02-26T04:18:33.527Z,3.60
2023-02-26T04:21:00.584Z,3.60
2023-02-26T04:23:27.494Z,3.70
2023-02-26T04:25:54.468Z,3.70
2023-02-26T04:28:21.508Z,3.70
2023-02-26T04:30:48.769Z,3.70
2023-02-26T04:33:16.347Z,3.70
2023-02-26T04:35:43.361Z,3.60
2023-02-26T04:38:10.399Z,3.60
2023-02-26T04:40:37.340Z,3.60
2023-02-26T04:43:04.776Z,3.60
2023-02-26T04:45:32.461Z,3.60
2023-02-26T04:47:59.426Z,3.50
2023-02-26T04:50:26.329Z,3.50
2023-02-26T04:52:55.068Z,3.50
2023-02-26T04:55:22.106Z,3.60
2023-02-26T04:57:49.013Z,3.60
2023-02-26T05:00:17.413Z,3.50
2023-02-26T05:02:44.337Z,3.50
2023-02-26T05:05:11.281Z,3.50
2023-02-26T05:07:38.433Z,3.50
2023-02-26T05:10:07.116Z,3.50
2023-02-26T05:12:34.081Z,3.50
2023-02-26T05:15:01.063Z,3.50
2023-02-26T05:17:28.054Z,3.50
2023-02-26T05:19:54.959Z,3.50
2023-02-26T05:22:21.953Z,3.50
2023-02-26T05:24:48.926Z,3.50
2023-02-26T05:27:16.393Z,3.50
2023-02-26T05:29:45.016Z,3.50
2023-02-26T05:32:12.393Z,3.50
2023-02-26T05:34:39.337Z,3.50
2023-02-26T05:37:06.309Z,3.50
2023-02-26T05:39:33.194Z,3.50
2023-02-26T05:42:00.112Z,3.50
2023-02-26T05:44:27.181Z,3.50
2023-02-26T05:46:54.234Z,3.50
2023-02-26T05:49:21.175Z,3.50
2023-02-26T05:51:48.173Z,3.50
2023-02-26T05:54:15.283Z,3.50
2023-02-26T05:56:42.251Z,3.50
2023-02-26T05:59:09.199Z,3.50
2023-02-26T06:01:39.783Z,3.50
2023-02-26T06:04:06.797Z,3.50
2023-02-26T06:06:34.160Z,3.50
2023-02-26T06:09:02.396Z,3.50
2023-02-26T06:11:31.722Z,3.50
2023-02-26T06:14:00.486Z,3.40
2023-02-26T06:16:27.942Z,3.50
2023-02-26T06:18:55.077Z,3.50
2023-02-26T06:21:21.974Z,3.50
2023-02-26T06:23:48.861Z,3.40
2023-02-26T06:26:15.873Z,3.40
2023-02-26T06:28:42.767Z,3.40
2023-02-26T06:31:09.678Z,3.40
2023-02-26T06:33:36.631Z,3.40
2023-02-26T06:36:03.699Z,3.50
2023-02-26T06:38:30.599Z,3.40
2023-02-26T06:40:57.579Z,3.40
2023-02-26T06:43:24.544Z,3.50
2023-02-26T06:45:51.647Z,3.50
2023-02-26T06:48:18.813Z,3.50
2023-02-26T06:50:45.772Z,3.40
2023-02-26T06:53:12.784Z,3.50
2023-02-26T06:55:46.351Z,3.40
2023-02-26T06:58:14.279Z,3.50
2023-02-26T07:00:41.814Z,3.50
2023-02-26T07:03:13.331Z,3.50
2023-02-26T07:05:40.442Z,3.50
2023-02-26T07:08:07.966Z,3.40
2023-02-26T07:10:36.674Z,3.40
2023-02-26T07:13:03.648Z,3.40
2023-02-26T07:15:30.816Z,3.50
2023-02-26T07:18:00.189Z,3.50
2023-02-26T07:20:27.771Z,3.40
2023-02-26T07:22:54.712Z,3.50
2023-02-26T07:25:21.689Z,3.50
2023-02-26T07:27:48.617Z,3.50
2023-02-26T07:30:16.140Z,3.50
2023-02-26T07:32:43.350Z,3.50
2023-02-26T07:35:10.821Z,3.50
2023-02-26T07:37:38.115Z,3.50
2023-02-26T07:40:05.599Z,3.50
2023-02-26T07:42:32.546Z,3.40
2023-02-26T07:44:59.881Z,3.50
2023-02-26T07:47:27.154Z,3.50
2023-02-26T07:49:54.038Z,3.50
2023-02-26T07:52:20.989Z,3.60
2023-02-26T07:54:48.006Z,3.60
2023-02-26T07:57:14.923Z,3.60
2023-02-26T07:59:41.844Z,3.70
2023-02-26T08:02:08.794Z,3.80
2023-02-26T08:04:35.793Z,3.80
2023-02-26T08:07:03.361Z,3.80
2023-02-26T08:09:30.779Z,3.80
2023-02-26T08:11:57.810Z,3.80
2023-02-26T08:14:24.808Z,3.90
2023-02-26T08:16:54.028Z,3.80
2023-02-26T08:19:20.907Z,3.80
2023-02-26T08:21:47.998Z,3.90
2023-02-26T08:24:16.042Z,3.90
2023-02-26T08:26:43.233Z,4.00
2023-02-26T08:29:10.166Z,3.90
2023-02-26T08:31:37.338Z,4.00
2023-02-26T08:34:04.501Z,4.00
2023-02-26T08:36:32.241Z,4.00
2023-02-26T08:39:00.215Z,4.00
2023-02-26T08:41:34.251Z,4.10
2023-02-26T08:44:01.368Z,4.10
2023-02-26T08:46:28.998Z,4.10
2023-02-26T08:48:57.813Z,4.20
2023-02-26T08:51:25.241Z,4.30
2023-02-26T08:53:52.342Z,4.30
2023-02-26T08:56:19.298Z,4.30
2023-02-26T08:58:46.235Z,4.40
2023-02-26T09:01:13.141Z,4.50
2023-02-26T09:03:40.133Z,4.60
2023-02-26T09:06:07.364Z,4.60
2023-02-26T09:08:34.386Z,4.60
2023-02-26T09:11:02.825Z,4.60
2023-02-26T09:13:30.521Z,4.70
2023-02-26T09:15:58.208Z,4.80
2023-02-26T09:18:25.376Z,5.00
2023-02-26T09:20:54.048Z,5.10
2023-02-26T09:23:20.972Z,5.10
2023-02-26T09:25:56.467Z,5.20
2023-02-26T09:28:25.402Z,5.30
2023-02-26T09:30:53.487Z,5.40
2023-02-26T09:33:21.291Z,5.50
2023-02-26T09:35:49.608Z,5.60
2023-02-26T09:38:17.237Z,5.60
2023-02-26T09:41:01.853Z,5.70
2023-02-26T09:43:45.720Z,5.70
2023-02-26T09:46:26.899Z,6.30
2023-02-26T09:49:13.671Z,7.00
2023-02-26T09:51:42.044Z,7.40
2023-02-26T09:54:29.097Z,7.70
2023-02-26T09:57:00.826Z,8.10
2023-02-26T09:59:39.442Z,8.50
2023-02-26T10:02:39.497Z,8.90
2023-02-26T10:05:18.071Z,9.50
2023-02-26T10:08:00.664Z,9.80
2023-02-26T10:11:01.622Z,9.50
2023-02-26T10:13:57.621Z,10.50
2023-02-26T10:16:30.357Z,10.90
2023-02-26T10:19:24.760Z,11.20
2023-02-26T10:22:04.321Z,11.40
2023-02-26T10:25:03.918Z,12.20
2023-02-26T10:27:57.013Z,12.60
2023-02-26T10:30:44.613Z,12.40
2023-02-26T10:33:30.757Z,13.00
2023-02-26T10:36:08.703Z,13.50
2023-02-26T10:38:35.983Z,13.90
2023-02-26T10:41:08.418Z,14.70
2023-02-26T10:43:47.484Z,14.40
2023-02-26T10:46:35.859Z,13.60
2023-02-26T10:49:14.617Z,13.70
2023-02-26T10:51:41.807Z,13.60
2023-02-26T10:54:17.725Z,13.30
2023-02-26T10:56:44.666Z,13.20
2023-02-26T10:59:11.581Z,12.10
2023-02-26T11:01:38.685Z,12.60
2023-02-26T11:04:15.436Z,12.80
2023-02-26T11:06:50.935Z,13.50
2023-02-26T11:09:25.673Z,14.20
2023-02-26T11:12:17.521Z,14.40
2023-02-26T11:14:47.069Z,14.80
2023-02-26T11:17:23.709Z,14.80
2023-02-26T11:19:57.986Z,14.90
2023-02-26T11:22:31.289Z,15.30
2023-02-26T11:24:59.116Z,15.90
2023-02-26T11:27:36.238Z,15.80
2023-02-26T11:30:25.217Z,15.60
2023-02-26T11:32:57.812Z,14.70
2023-02-26T11:35:27.174Z,14.00
2023-02-26T11:37:59.959Z,13.20
2023-02-26T11:40:40.028Z,12.80
2023-02-26T11:43:13.021Z,13.00
2023-02-26T11:45:44.214Z,13.70
2023-02-26T11:48:25.919Z,14.20
2023-02-26T11:50:58.023Z,14.70
2023-02-26T11:53:53.620Z,15.10
2023-02-26T11:56:40.511Z,15.50
2023-02-26T11:59:23.056Z,15.60
2023-02-26T12:01:51.592Z,16.60
2023-02-26T12:04:27.872Z,16.90
2023-02-26T12:06:57.244Z,17.20
2023-02-26T12:09:26.434Z,17.40
2023-02-26T12:12:02.394Z,17.50
2023-02-26T12:14:32.139Z,17.10
2023-02-26T12:17:11.055Z,16.10
2023-02-26T12:20:19.963Z,15.60
2023-02-26T12:23:26.089Z,14.80
2023-02-26T12:26:10.937Z,14.10
2023-02-26T12:29:15.607Z,13.80
2023-02-26T12:32:00.025Z,12.80
2023-02-26T12:34:38.904Z,12.40
2023-02-26T12:37:11.953Z,12.40
2023-02-26T12:40:14.601Z,12.30
2023-02-26T12:42:48.145Z,12.10
2023-02-26T12:45:35.296Z,12.00
2023-02-26T12:48:15.838Z,12.10
2023-02-26T12:51:11.734Z,12.40
2023-02-26T12:53:38.661Z,13.60
2023-02-26T12:56:24.093Z,14.00
2023-02-26T12:59:02.632Z,14.90
2023-02-26T13:01:49.802Z,15.50
2023-02-26T13:04:22.998Z,15.90
2023-02-26T13:07:11.765Z,15.10
2023-02-26T13:10:09.127Z,14.40
2023-02-26T13:12:57.887Z,14.00
2023-02-26T13:15:36.856Z,13.80
2023-02-26T13:18:28.248Z,13.50
2023-02-26T13:21:00.825Z,13.20
2023-02-26T13:23:46.541Z,12.90
2023-02-26T13:26:15.860Z,12.60
2023-02-26T13:28:45.242Z,12.30
2023-02-26T13:31:20.187Z,12.00
2023-02-26T13:33:49.159Z,11.70
2023-02-26T13:36:17.881Z,11.40
2023-02-26T13:39:11.320Z,11.40
2023-02-26T13:41:58.241Z,11.30
2023-02-26T13:44:46.359Z,11.30
2023-02-26T13:47:34.686Z,11.30
2023-02-26T13:50:20.276Z,11.90
2023-02-26T13:52:57.199Z,12.90
2023-02-26T13:55:47.965Z,13.60
2023-02-26T13:58:22.242Z,14.20
2023-02-26T14:01:07.244Z,15.00
2023-02-26T14:03:40.975Z,15.50
2023-02-26T14:06:09.955Z,15.50
2023-02-26T14:08:39.383Z,15.80
2023-02-26T14:11:39.653Z,15.70
2023-02-26T14:14:17.276Z,16.30
2023-02-26T14:16:49.473Z,16.50
2023-02-26T14:19:44.821Z,16.50
2023-02-26T14:22:26.096Z,17.00
2023-02-26T14:25:12.141Z,17.00
2023-02-26T14:27:49.806Z,16.70
2023-02-26T14:30:30.425Z,16.90
2023-02-26T14:33:05.142Z,17.10
2023-02-26T14:35:41.830Z,17.30
2023-02-26T14:38:32.528Z,17.10
2023-02-26T14:41:06.154Z,16.80
2023-02-26T14:43:42.881Z,16.70
2023-02-26T14:46:11.475Z,16.80
2023-02-26T14:48:39.526Z,16.40
2023-02-26T14:51:25.839Z,16.40
2023-02-26T14:54:08.169Z,16.40
2023-02-26T14:56:54.147Z,16.00
2023-02-26T14:59:39.249Z,16.00
2023-02-26T15:02:12.182Z,15.90
2023-02-26T15:05:03.538Z,15.70
2023-02-26T15:08:01.093Z,15.60
2023-02-26T15:10:48.200Z,15.40
2023-02-26T15:13:39.304Z,15.80
2023-02-26T15:16:18.111Z,15.90
2023-02-26T15:19:43.291Z,15.80
2023-02-26T15:22:22.548Z,15.80
2023-02-26T15:24:49.743Z,15.50
2023-02-26T15:27:19.207Z,15.20
2023-02-26T15:29:47.828Z,15.20
2023-02-26T15:32:27.720Z,15.40
2023-02-26T15:35:18.700Z,15.50
2023-02-26T15:37:55.147Z,15.80
2023-02-26T15:40:22.230Z,16.10
2023-02-26T15:42:52.876Z,16.10
2023-02-26T15:45:22.071Z,15.40
2023-02-26T15:47:54.162Z,14.50
2023-02-26T15:50:25.694Z,14.00
2023-02-26T15:52:57.236Z,13.80
2023-02-26T15:55:25.033Z,13.60
2023-02-26T15:57:54.090Z,13.60
2023-02-26T16:00:25.885Z,13.10
2023-02-26T16:02:59.458Z,12.90
2023-02-26T16:05:27.998Z,12.80
2023-02-26T16:07:56.583Z,12.80
2023-02-26T16:10:38.883Z,13.00
2023-02-26T16:13:08.701Z,13.00
2023-02-26T16:15:39.176Z,12.80
2023-02-26T16:18:12.606Z,12.30
2023-02-26T16:20:43.811Z,12.10
2023-02-26T16:23:15.770Z,12.00
2023-02-26T16:25:56.514Z,11.70
2023-02-26T16:28:40.425Z,11.80
2023-02-26T16:31:12.688Z,11.70
2023-02-26T16:33:53.115Z,11.20
2023-02-26T16:36:24.899Z,10.70
2023-02-26T16:39:03.060Z,10.50
2023-02-26T16:41:39.312Z,10.00
2023-02-26T16:44:31.680Z,9.90
2023-02-26T16:46:59.714Z,9.40
2023-02-26T16:49:33.379Z,9.30
2023-02-26T16:52:01.585Z,9.20
2023-02-26T16:54:38.267Z,9.00
2023-02-26T16:57:19.101Z,8.70
2023-02-26T16:59:52.979Z,8.40
2023-02-26T17:02:26.797Z,8.30
2023-02-26T17:04:59.588Z,8.20
2023-02-26T17:07:32.726Z,8.50
2023-02-26T17:10:09.766Z,8.30
2023-02-26T17:12:47.918Z,8.10
2023-02-26T17:15:21.249Z,7.90
2023-02-26T17:17:48.763Z,7.70
2023-02-26T17:20:18.607Z,7.60
2023-02-26T17:22:45.630Z,7.50
2023-02-26T17:25:18.411Z,7.50
2023-02-26T17:27:46.662Z,7.60
2023-02-26T17:30:22.223Z,7.60
2023-02-26T17:32:49.263Z,7.60
2023-02-26T17:35:18.651Z,7.60
2023-02-26T17:37:49.144Z,7.50
2023-02-26T17:40:28.778Z,7.50
2023-02-26T17:43:00.167Z,7.50
2023-02-26T17:45:27.193Z,7.40
2023-02-26T17:47:54.157Z,7.30
2023-02-26T17:50:24.145Z,7.20
2023-02-26T17:52:51.110Z,7.20
2023-02-26T17:55:18.021Z,7.10
2023-02-26T17:57:45.212Z,7.10
2023-02-26T18:00:15.499Z,6.90
2023-02-26T18:02:42.573Z,6.90
2023-02-26T18:05:09.709Z,6.70
2023-02-26T18:07:37.932Z,6.60
2023-02-26T18:10:05.954Z,6.50
2023-02-26T18:12:33.055Z,6.40
2023-02-26T18:14:59.970Z,6.40
2023-02-26T18:17:31.195Z,6.40
2023-02-26T18:19:58.610Z,6.40
2023-02-26T18:22:27.627Z,6.50
2023-02-26T18:24:58.297Z,6.50
2023-02-26T18:27:26.999Z,6.50
2023-02-26T18:29:54.620Z,6.50
2023-02-26T18:32:24.053Z,6.50
2023-02-26T18:34:51.649Z,6.40
2023-02-26T18:37:21.428Z,6.30
2023-02-26T18:39:49.041Z,6.30
2023-02-26T18:42:20.435Z,6.30
2023-02-26T18:44:48.405Z,6.20
2023-02-26T18:47:16.144Z,6.20
2023-02-26T18:49:43.315Z,6.10
2023-02-26T18:52:10.289Z,6.10
2023-02-26T18:54:37.641Z,6.00
2023-02-26T18:57:06.459Z,5.90
2023-02-26T18:59:34.336Z,5.90
2023-02-26T19:02:02.814Z,5.90
2023-02-26T19:04:30.803Z,5.90
2023-02-26T19:06:58.122Z,5.90
2023-02-26T19:09:27.220Z,5.80
2023-02-26T19:11:54.200Z,5.70
2023-02-26T19:14:21.260Z,5.80
2023-02-26T19:16:48.236Z,5.70
2023-02-26T19:19:15.165Z,5.60
2023-02-26T19:21:42.111Z,5.50
2023-02-26T19:24:11.380Z,5.50
2023-02-26T19:26:38.800Z,5.40
2023-02-26T19:29:08.034Z,5.30
2023-02-26T19:31:36.621Z,5.40
2023-02-26T19:34:04.361Z,5.30
2023-02-26T19:36:33.680Z,5.30
2023-02-26T19:39:02.406Z,5.30
2023-02-26T19:41:29.403Z,5.30
2023-02-26T19:43:56.400Z,5.30
2023-02-26T19:46:23.813Z,5.20
2023-02-26T19:48:51.191Z,5.10
2023-02-26T19:51:18.961Z,5.20
2023-02-26T19:53:46.083Z,5.20
2023-02-26T19:56:13.860Z,5.20
2023-02-26T19:58:41.841Z,5.10
2023-02-26T20:01:08.742Z,5.00
2023-02-26T20:03:35.879Z,5.00
2023-02-26T20:06:02.965Z,5.10
2023-02-26T20:08:30.540Z,5.00
2023-02-26T20:10:58.595Z,5.10
2023-02-26T20:13:29.880Z,5.10
2023-02-26T20:16:01.429Z,5.20
2023-02-26T20:18:31.336Z,5.20
2023-02-26T20:21:03.711Z,5.20
2023-02-26T20:23:36.159Z,5.10
2023-02-26T20:26:05.655Z,5.10
2023-02-26T20:28:32.795Z,5.00
2023-02-26T20:30:59.789Z,4.90
2023-02-26T20:33:27.045Z,4.80
2023-02-26T20:35:54.913Z,4.80
2023-02-26T20:38:23.036Z,4.90
2023-02-26T20:40:50.177Z,4.80
2023-02-26T20:43:17.129Z,4.60
2023-02-26T20:45:44.105Z,4.50
2023-02-26T20:48:11.132Z,4.40
2023-02-26T20:50:38.357Z,4.30
2023-02-26T20:53:07.034Z,4.20
2023-02-26T20:55:34.644Z,4.30
2023-02-26T20:58:01.670Z,4.30
2023-02-26T21:00:28.667Z,4.30
2023-02-26T21:02:55.612Z,4.30
2023-02-26T21:05:22.947Z,4.40
2023-02-26T21:07:51.121Z,4.50
2023-02-26T21:10:19.179Z,4.50
2023-02-26T21:12:46.335Z,4.50
2023-02-26T21:15:13.902Z,4.50
2023-02-26T21:17:42.883Z,4.60
2023-02-26T21:20:15.054Z,4.60
2023-02-26T21:22:42.029Z,4.50
2023-02-26T21:25:09.473Z,4.20
2023-02-26T21:27:37.099Z,4.30
2023-02-26T21:30:06.174Z,4.50
2023-02-26T21:32:33.220Z,4.30
2023-02-26T21:35:00.211Z,4.20
2023-02-26T21:37:27.724Z,4.30
2023-02-26T21:39:54.661Z,4.30
2023-02-26T21:42:22.558Z,4.50
2023-02-26T21:44:49.702Z,4.50
2023-02-26T21:47:16.803Z,4.70
2023-02-26T21:49:43.947Z,4.60
2023-02-26T21:52:12.037Z,4.70
2023-02-26T21:54:39.286Z,4.70
2023-02-26T21:57:06.343Z,4.60
2023-02-26T21:59:33.602Z,4.60
2023-02-26T22:02:00.554Z,4.70
2023-02-26T22:04:27.813Z,4.70
2023-02-26T22:06:57.816Z,4.70
2023-02-26T22:09:24.709Z,4.80
2023-02-26T22:11:51.689Z,4.80
2023-02-26T22:14:18.632Z,4.80
2023-02-26T22:16:45.655Z,4.70
2023-02-26T22:19:12.577Z,4.80
2023-02-26T22:21:39.523Z,4.70
2023-02-26T22:24:06.920Z,4.70
2023-02-26T22:26:33.841Z,4.60
2023-02-26T22:29:01.023Z,4.50
2023-02-26T22:31:29.584Z,4.50
2023-02-26T22:33:57.479Z,4.40
2023-02-26T22:36:25.578Z,4.50
2023-02-26T22:38:52.460Z,4.60
2023-02-26T22:41:19.807Z,4.40
2023-02-26T22:43:46.727Z,4.30
2023-02-26T22:46:13.695Z,4.30
2023-02-26T22:48:40.627Z,4.20
2023-02-26T22:51:07.572Z,4.20
2023-02-26T22:53:35.661Z,4.20
2023-02-26T22:56:02.611Z,4.20
2023-02-26T22:58:29.527Z,4.30
2023-02-26T23:01:01.821Z,4.30
2023-02-26T23:03:29.597Z,4.30
2023-02-26T23:05:57.374Z,4.30
2023-02-26T23:08:25.802Z,4.40
2023-02-26T23:10:57.485Z,4.50
2023-02-26T23:13:25.007Z,4.50
2023-02-26T23:15:52.042Z,4.60
2023-02-26T23:18:19.048Z,4.60
2023-02-26T23:20:47.616Z,4.60
2023-02-26T23:23:14.653Z,4.70
2023-02-26T23:25:42.967Z,4.70
2023-02-26T23:28:10.469Z,4.60
2023-02-26T23:30:37.588Z,4.50
2023-02-26T23:33:05.407Z,4.60
2023-02-26T23:35:32.599Z,4.60
2023-02-26T23:37:59.934Z,4.50
2023-02-26T23:40:27.410Z,4.50
2023-02-26T23:42:55.238Z,4.50
2023-02-26T23:45:22.603Z,4.50
2023-02-26T23:47:49.526Z,4.40
2023-02-26T23:50:16.651Z,4.40
2023-02-26T23:52:43.559Z,4.40
2023-02-26T23:55:11.187Z,4.50
2023-02-26T23:57:38.467Z,4.50
